Terminal Aerodrome Forecast
Issued by NWS

Home | Current Version | Previous Version | Text Only | Print | Product List | Glossary On
Versions: 1 2 3 4 5 6 7 8 9 10 11 12 13 14 15
000
FTAK31 PAJN 310535
TAFAKT
TAF
PAKT 310535Z 3106/0106 14013G18KT 6SM -RA BR OVC020 WS020/16025KT
      TEMPO 3106/3110 5SM RA BR OVC010
     FM311000 14013G21KT 4SM -SHRA BR BKN012 OVC025 WS020/16035KT
     FM311300 14011G18KT 5SM -SHRA OVC015 WS020/16025KT
     FM312000 14010KT 6SM -SHRA BR SCT020 OVC040
     FM010300 13006KT P6SM VCSH SCT015 OVC035
      AMD LTD TO CLD VIS AND WIND 3106/3115=

USA.gov is the U.S. government's official web portal to all federal, state and local government web resources and services.